Time;durP1;ratioP1;P1;durP2;ratioP2;P2;SDS_P1;SDS_P2;PMS_P1;PMS_P2;Temp;Humidity;BMP_temperature;BMP_pressure;BME280_temperature;BME280_humidity;BME280_pressure;Samples;Min_cycle;Max_cycle;Signal;HPM_P1;HPM_P2
2024/01/11 00:00:40;;;;;;;52.20;18.77;;;-4.80;99.90;;;;;;4980097;28;85893;-77
2024/01/11 00:03:05;;;;;;;46.22;18.98;;;-4.80;99.90;;;;;;4981790;28;86148;-76
2024/01/11 00:05:31;;;;;;;47.60;18.80;;;-4.80;99.90;;;;;;4973495;28;85896;-76
2024/01/11 00:07:57;;;;;;;49.80;18.83;;;-4.80;99.90;;;;;;4969972;28;86722;-76
2024/01/11 00:10:23;;;;;;;54.40;18.95;;;-4.80;99.90;;;;;;4979750;28;87043;-76
2024/01/11 00:12:49;;;;;;;46.35;18.17;;;-4.80;99.90;;;;;;4976987;28;87287;-76
2024/01/11 00:15:15;;;;;;;46.75;18.02;;;-4.70;99.90;;;;;;4978350;28;86188;-77
2024/01/11 00:17:40;;;;;;;42.08;17.63;;;-4.70;99.90;;;;;;4979569;28;86702;-76
2024/01/11 00:20:07;;;;;;;49.28;17.40;;;-4.70;99.90;;;;;;4981330;28;87280;-76
2024/01/11 00:22:33;;;;;;;45.95;18.00;;;-4.70;99.90;;;;;;4978366;28;86713;-78
2024/01/11 00:24:58;;;;;;;55.25;18.92;;;-4.70;99.90;;;;;;4977266;28;86248;-77
2024/01/11 00:27:24;;;;;;;45.95;17.75;;;-4.70;99.90;;;;;;4983707;28;86961;-77
2024/01/11 00:29:50;;;;;;;50.05;18.55;;;-4.70;99.90;;;;;;4975321;28;86092;-78
2024/01/11 00:32:16;;;;;;;42.03;16.67;;;-4.80;99.90;;;;;;4981483;28;86483;-77
2024/01/11 00:34:41;;;;;;;50.53;19.77;;;-4.80;99.90;;;;;;4980188;28;86841;-77
2024/01/11 00:37:07;;;;;;;45.85;18.90;;;-4.80;99.90;;;;;;4980187;28;86561;-78
2024/01/11 00:39:33;;;;;;;41.70;17.27;;;-4.80;99.90;;;;;;4977026;28;86407;-78
2024/01/11 00:41:59;;;;;;;42.53;17.38;;;-4.80;99.90;;;;;;4980047;28;86927;-76
2024/01/11 00:44:25;;;;;;;46.42;19.35;;;-4.80;99.90;;;;;;4982138;28;86871;-76
2024/01/11 00:46:51;;;;;;;51.35;18.17;;;-4.80;99.90;;;;;;4977043;28;86360;-76
2024/01/11 00:49:16;;;;;;;42.20;17.23;;;-4.80;99.90;;;;;;4978911;28;85928;-77
2024/01/11 00:51:42;;;;;;;46.55;17.75;;;-4.80;99.90;;;;;;4977683;28;88970;-77
2024/01/11 00:54:08;;;;;;;48.92;18.05;;;-4.80;99.90;;;;;;4981713;28;87367;-78
2024/01/11 00:56:34;;;;;;;39.83;17.95;;;-4.80;99.90;;;;;;4977893;28;86432;-77
2024/01/11 00:59:00;;;;;;;46.90;18.17;;;-4.80;99.90;;;;;;4979598;28;88443;-76
2024/01/11 01:01:26;;;;;;;44.85;16.67;;;-4.80;99.90;;;;;;4976057;28;87787;-76
2024/01/11 01:03:52;;;;;;;55.20;18.45;;;-4.80;99.90;;;;;;4976492;28;86922;-77
2024/01/11 01:06:17;;;;;;;45.20;18.70;;;-4.80;99.90;;;;;;4976852;28;86337;-77
2024/01/11 01:08:43;;;;;;;47.80;17.65;;;-4.80;99.90;;;;;;4989740;28;87839;-78
2024/01/11 01:11:10;;;;;;;60.45;18.67;;;-4.90;99.90;;;;;;4978804;28;87095;-78
2024/01/11 01:13:36;;;;;;;44.28;16.83;;;-4.90;99.90;;;;;;4977132;28;86013;-77
2024/01/11 01:16:01;;;;;;;46.40;17.80;;;-4.90;99.90;;;;;;4976731;28;86283;-76
2024/01/11 01:18:27;;;;;;;46.00;16.83;;;-4.90;99.90;;;;;;4979296;28;87391;-76
2024/01/11 01:20:53;;;;;;;46.65;18.58;;;-4.90;99.90;;;;;;4979268;28;86613;-76
2024/01/11 01:23:18;;;;;;;52.80;19.38;;;-4.90;99.90;;;;;;4978284;28;86329;-77
2024/01/11 01:25:44;;;;;;;45.78;17.75;;;-4.90;99.90;;;;;;4977434;28;86615;-76
2024/01/11 01:28:11;;;;;;;45.22;18.10;;;-4.90;99.90;;;;;;4976680;28;87056;-76
2024/01/11 01:30:37;;;;;;;55.00;18.38;;;-4.90;99.90;;;;;;4977269;28;87925;-77
2024/01/11 01:33:03;;;;;;;46.00;17.38;;;-4.80;99.90;;;;;;4980115;28;85901;-76
2024/01/11 01:35:29;;;;;;;46.60;17.90;;;-4.90;99.90;;;;;;4979072;28;86642;-77
2024/01/11 01:37:55;;;;;;;47.13;17.27;;;-4.90;99.90;;;;;;4976628;28;86868;-77
2024/01/11 01:40:21;;;;;;;48.00;18.83;;;-4.90;99.90;;;;;;4974474;28;86901;-77
2024/01/11 01:42:48;;;;;;;41.53;17.17;;;-5.00;99.90;;;;;;4975452;28;86521;-77
2024/01/11 01:45:17;;;;;;;45.60;17.50;;;-5.00;99.90;;;;;;4976831;28;86538;-79
2024/01/11 01:47:43;;;;;;;45.30;17.85;;;-5.00;99.90;;;;;;4977520;28;87266;-77
2024/01/11 01:50:11;;;;;;;46.05;17.75;;;-5.00;99.90;;;;;;4978687;28;87496;-76
2024/01/11 01:52:39;;;;;;;44.28;18.42;;;-5.00;99.90;;;;;;4976328;28;86681;-76
2024/01/11 01:55:06;;;;;;;45.65;17.73;;;-5.00;99.90;;;;;;4979183;28;86494;-77
2024/01/11 01:57:34;;;;;;;41.60;17.90;;;-5.00;99.90;;;;;;4978519;28;87417;-76
2024/01/11 02:00:01;;;;;;;49.28;18.33;;;-5.10;99.90;;;;;;4976701;28;88378;-76
2024/01/11 02:02:28;;;;;;;51.78;17.30;;;-5.00;99.90;;;;;;4981167;28;86748;-77
2024/01/11 02:04:54;;;;;;;43.63;17.38;;;-5.10;99.90;;;;;;4987145;28;86696;-76
2024/01/11 02:07:20;;;;;;;44.90;17.35;;;-5.10;99.90;;;;;;4983384;28;86562;-77
2024/01/11 02:12:14;;;;;;;51.50;17.63;;;-5.10;99.90;;;;;;4987367;28;86022;-77
2024/01/11 02:14:40;;;;;;;46.33;17.83;;;-5.20;99.90;;;;;;4986723;28;85952;-77
2024/01/11 02:17:06;;;;;;;39.83;17.30;;;-5.20;99.90;;;;;;4983193;28;86177;-78
2024/01/11 02:19:34;;;;;;;46.80;18.27;;;-5.20;99.90;;;;;;4982356;28;87638;-77
2024/01/11 02:22:08;;;;;;;40.35;16.35;;;-5.30;99.90;;;;;;4984093;28;87569;-77
2024/01/11 02:24:33;;;;;;;42.20;17.73;;;-5.30;99.90;;;;;;4984443;28;86054;-76
2024/01/11 02:27:02;;;;;;;46.70;18.38;;;-5.30;99.90;;;;;;4986179;28;88121;-77
2024/01/11 02:29:28;;;;;;;49.42;17.42;;;-5.30;99.90;;;;;;4993657;28;87043;-77
2024/01/11 02:31:59;;;;;;;48.35;18.35;;;-5.30;99.90;;;;;;4984838;28;86432;-76
2024/01/11 02:34:27;;;;;;;48.35;17.52;;;-5.30;99.90;;;;;;4984518;28;86730;-78
2024/01/11 02:36:54;;;;;;;43.60;17.92;;;-5.30;99.90;;;;;;4987130;28;85849;-75
2024/01/11 02:39:20;;;;;;;44.58;17.17;;;-5.30;99.90;;;;;;4984933;28;86737;-76
2024/01/11 02:41:47;;;;;;;44.15;18.83;;;-5.40;99.90;;;;;;4986158;28;86337;-76
2024/01/11 02:44:13;;;;;;;45.00;17.52;;;-5.30;99.90;;;;;;4982166;28;86722;-77
2024/01/11 02:46:40;;;;;;;41.92;17.30;;;-5.40;99.90;;;;;;4981999;28;87878;-76
2024/01/11 02:49:05;;;;;;;51.75;17.85;;;-5.40;99.90;;;;;;4984327;28;88795;-77
2024/01/11 02:51:32;;;;;;;46.42;17.52;;;-5.40;99.90;;;;;;4984239;28;86653;-76
2024/01/11 02:53:58;;;;;;;40.15;16.02;;;-5.40;99.90;;;;;;4985266;28;85765;-76
2024/01/11 02:56:24;;;;;;;45.83;17.35;;;-5.50;99.90;;;;;;4981719;28;87178;-78
2024/01/11 02:58:50;;;;;;;48.58;18.30;;;-5.50;99.90;;;;;;4976779;28;87451;-77
2024/01/11 03:01:16;;;;;;;41.83;16.60;;;-5.50;99.90;;;;;;4981845;28;85958;-77
2024/01/11 03:03:42;;;;;;;51.53;19.08;;;-5.50;99.90;;;;;;4978357;28;85688;-77
2024/01/11 03:06:07;;;;;;;50.08;17.45;;;-5.60;99.90;;;;;;4984053;28;86721;-78
2024/01/11 03:08:33;;;;;;;52.67;17.75;;;-5.60;99.90;;;;;;4980752;28;87371;-77
2024/01/11 03:10:59;;;;;;;53.15;18.27;;;-5.60;99.90;;;;;;4983983;28;85891;-76
2024/01/11 03:13:25;;;;;;;50.35;17.45;;;-5.60;99.90;;;;;;4980678;28;86116;-77
2024/01/11 03:15:51;;;;;;;45.45;17.42;;;-5.60;99.90;;;;;;4982480;28;86839;-77
2024/01/11 03:18:17;;;;;;;49.05;18.58;;;-5.60;99.90;;;;;;4979870;28;85943;-77
2024/01/11 03:20:43;;;;;;;48.40;18.02;;;-5.60;99.90;;;;;;4979979;28;86786;-77
2024/01/11 03:23:09;;;;;;;61.95;19.02;;;-5.70;99.90;;;;;;4982102;28;85950;-78
2024/01/11 03:25:34;;;;;;;44.50;16.67;;;-5.70;99.90;;;;;;4981652;28;88351;-78
2024/01/11 03:28:00;;;;;;;52.15;19.08;;;-5.70;99.90;;;;;;4981291;28;86427;-76
2024/01/11 03:30:26;;;;;;;49.25;17.70;;;-5.60;99.90;;;;;;4982378;28;85779;-75
2024/01/11 03:32:53;;;;;;;44.22;17.35;;;-5.60;99.90;;;;;;4979394;28;86848;-76
2024/01/11 03:35:19;;;;;;;54.42;18.40;;;-5.70;99.90;;;;;;4979166;28;86582;-77
2024/01/11 03:37:45;;;;;;;48.22;18.40;;;-5.70;99.90;;;;;;4981818;28;86899;-77
2024/01/11 03:40:11;;;;;;;38.75;16.98;;;-5.70;99.90;;;;;;4981008;28;87138;-77
2024/01/11 03:42:37;;;;;;;49.00;17.02;;;-5.70;99.90;;;;;;4981744;28;86695;-76
2024/01/11 03:45:04;;;;;;;46.67;17.55;;;-5.60;99.90;;;;;;4978671;28;88476;-76
2024/01/11 03:47:30;;;;;;;43.58;15.63;;;-5.60;99.90;;;;;;4981241;28;87834;-77
2024/01/11 03:49:56;;;;;;;45.83;17.75;;;-5.60;99.90;;;;;;4980326;28;86088;-77
2024/01/11 03:52:22;;;;;;;47.17;18.23;;;-5.60;99.90;;;;;;4983574;28;88206;-78
2024/01/11 03:54:49;;;;;;;40.60;17.38;;;-5.70;99.90;;;;;;4980538;28;86577;-77
2024/01/11 03:57:17;;;;;;;46.05;16.83;;;-5.70;99.90;;;;;;4982233;28;87341;-76
2024/01/11 03:59:42;;;;;;;50.95;19.33;;;-5.70;99.90;;;;;;4981566;28;86775;-77
2024/01/11 04:02:09;;;;;;;45.83;17.98;;;-5.70;99.90;;;;;;4979287;28;85869;-77
2024/01/11 04:04:35;;;;;;;48.65;18.52;;;-5.70;99.90;;;;;;4982522;28;88526;-78
2024/01/11 04:07:00;;;;;;;50.95;19.52;;;-5.70;99.90;;;;;;4980817;28;86916;-76
2024/01/11 04:09:26;;;;;;;49.20;18.95;;;-5.70;99.90;;;;;;4982224;28;86328;-77
2024/01/11 04:11:52;;;;;;;45.08;19.23;;;-5.70;99.90;;;;;;4980052;28;86791;-76
2024/01/11 04:14:18;;;;;;;54.83;19.05;;;-5.70;99.90;;;;;;4979268;28;89777;-76
2024/01/11 04:16:44;;;;;;;52.05;19.48;;;-5.60;99.90;;;;;;4980789;28;87237;-77
2024/01/11 04:19:10;;;;;;;58.80;18.67;;;-5.70;99.90;;;;;;4974386;28;86501;-77
2024/01/11 04:21:38;;;;;;;48.83;19.48;;;-5.60;99.90;;;;;;4981954;28;86358;-77
2024/01/11 04:24:05;;;;;;;46.97;19.05;;;-5.70;99.90;;;;;;4984048;28;86964;-76
2024/01/11 04:26:31;;;;;;;42.15;17.73;;;-5.60;99.90;;;;;;4981469;28;86653;-77
2024/01/11 04:28:59;;;;;;;46.35;18.10;;;-5.70;99.90;;;;;;4977099;28;86459;-76
2024/01/11 04:31:25;;;;;;;47.00;18.10;;;-5.60;99.90;;;;;;4979592;28;86568;-78
2024/01/11 04:33:51;;;;;;;51.40;19.35;;;-5.60;99.90;;;;;;4978975;28;86866;-76
2024/01/11 04:36:18;;;;;;;48.15;18.35;;;-5.60;99.90;;;;;;4976916;28;86240;-76
2024/01/11 04:38:44;;;;;;;52.72;20.05;;;-5.60;99.90;;;;;;4979614;28;86346;-76
2024/01/11 04:41:14;;;;;;;43.22;17.70;;;-5.60;99.90;;;;;;4983721;28;85980;-77
2024/01/11 04:43:44;;;;;;;56.40;20.02;;;-5.60;99.90;;;;;;4981471;28;87076;-76
2024/01/11 04:46:17;;;;;;;48.63;18.70;;;-5.60;99.90;;;;;;4980974;28;86216;-77
2024/01/11 04:48:44;;;;;;;51.42;18.98;;;-5.60;99.90;;;;;;4978970;28;85989;-77
2024/01/11 04:51:10;;;;;;;44.88;18.73;;;-5.60;99.90;;;;;;4980211;28;86341;-77
2024/01/11 04:53:40;;;;;;;50.85;18.75;;;-5.60;99.90;;;;;;4979303;28;87705;-78
2024/01/11 04:56:14;;;;;;;52.80;19.95;;;-5.60;99.90;;;;;;4979595;28;86864;-76
2024/01/11 04:58:42;;;;;;;55.28;20.42;;;-5.60;99.90;;;;;;4977505;28;86213;-76
2024/01/11 05:01:17;;;;;;;47.75;18.35;;;-5.60;99.90;;;;;;4977374;28;86444;-77
2024/01/11 05:03:45;;;;;;;54.33;18.67;;;-5.60;99.90;;;;;;4979763;28;87583;-77
2024/01/11 05:06:21;;;;;;;49.20;19.95;;;-5.60;99.90;;;;;;4978208;28;87253;-78
2024/01/11 05:08:51;;;;;;;49.80;18.27;;;-5.60;99.90;;;;;;4977511;28;86309;-77
2024/01/11 05:11:18;;;;;;;55.45;20.23;;;-5.60;99.90;;;;;;4976798;28;87108;-77
2024/01/11 05:13:47;;;;;;;46.92;17.85;;;-5.60;99.90;;;;;;4978528;28;88384;-78
2024/01/11 05:16:26;;;;;;;49.95;19.65;;;-5.60;99.90;;;;;;4979859;28;87527;-76
2024/01/11 05:18:53;;;;;;;45.55;18.50;;;-5.60;99.90;;;;;;4976871;28;86828;-79
2024/01/11 05:21:19;;;;;;;54.22;20.00;;;-5.70;99.90;;;;;;4980567;28;87142;-76
2024/01/11 05:23:46;;;;;;;51.65;18.52;;;-5.70;99.90;;;;;;4980508;28;86984;-77
2024/01/11 05:26:15;;;;;;;51.85;19.35;;;-5.60;99.90;;;;;;4976017;28;86195;-77
2024/01/11 05:28:41;;;;;;;51.50;18.90;;;-5.60;99.90;;;;;;4980330;28;86108;-77
2024/01/11 05:31:09;;;;;;;48.83;19.23;;;-5.60;99.90;;;;;;4975249;28;87142;-77
2024/01/11 05:33:36;;;;;;;51.33;20.77;;;-5.60;99.90;;;;;;4979314;28;86138;-76
2024/01/11 05:36:02;;;;;;;48.03;19.02;;;-5.60;99.90;;;;;;4987977;28;86410;-77
2024/01/11 05:38:28;;;;;;;46.88;19.30;;;-5.60;99.90;;;;;;4978165;28;86597;-78
2024/01/11 05:40:53;;;;;;;48.47;19.90;;;-5.60;99.90;;;;;;4980743;28;85982;-77
2024/01/11 05:43:20;;;;;;;47.17;19.17;;;-5.60;99.90;;;;;;4980575;28;86649;-77
2024/01/11 05:45:46;;;;;;;50.83;19.38;;;-5.60;99.90;;;;;;4980740;28;87286;-76
2024/01/11 05:48:11;;;;;;;56.00;20.73;;;-5.60;99.90;;;;;;4982956;28;86664;-77
2024/01/11 05:50:37;;;;;;;59.90;22.10;;;-5.60;99.90;;;;;;4977984;28;86049;-77
2024/01/11 05:53:03;;;;;;;53.42;19.88;;;-5.60;99.90;;;;;;4983296;28;87290;-77
2024/01/11 05:55:29;;;;;;;52.10;19.08;;;-5.60;99.90;;;;;;4982425;28;87512;-76
2024/01/11 05:57:55;;;;;;;52.58;20.42;;;-5.60;99.90;;;;;;4982724;28;85803;-76
2024/01/11 06:00:22;;;;;;;48.20;20.40;;;-5.70;99.90;;;;;;4983465;28;86218;-76
2024/01/11 06:02:48;;;;;;;51.63;19.63;;;-5.70;99.90;;;;;;4983083;28;87096;-76
2024/01/11 06:05:15;;;;;;;52.13;20.73;;;-5.70;99.90;;;;;;4980840;28;87250;-76
2024/01/11 06:07:41;;;;;;;49.08;19.98;;;-5.70;99.90;;;;;;4982377;28;89265;-76
2024/01/11 06:10:08;;;;;;;51.88;20.55;;;-5.70;99.90;;;;;;4981800;28;86102;-77
2024/01/11 06:12:35;;;;;;;58.85;21.52;;;-5.70;99.90;;;;;;4982314;28;86130;-78
2024/01/11 06:15:01;;;;;;;55.58;21.13;;;-5.70;99.90;;;;;;4983279;28;86484;-77
2024/01/11 06:17:27;;;;;;;58.20;21.23;;;-5.70;99.90;;;;;;4979736;28;86143;-77
2024/01/11 06:19:54;;;;;;;63.13;21.83;;;-5.70;99.90;;;;;;4980726;28;86010;-78
2024/01/11 06:22:20;;;;;;;54.30;20.02;;;-5.70;99.90;;;;;;4980806;28;87030;-77
2024/01/11 06:24:46;;;;;;;57.00;21.10;;;-5.70;99.90;;;;;;4983803;28;86604;-78
2024/01/11 06:27:12;;;;;;;59.33;21.55;;;-5.70;99.90;;;;;;4983032;28;87469;-76
2024/01/11 06:29:37;;;;;;;51.20;19.58;;;-5.70;99.90;;;;;;4980217;28;87908;-77
2024/01/11 06:32:03;;;;;;;58.13;21.23;;;-5.70;99.90;;;;;;4980395;28;86144;-77
2024/01/11 06:34:29;;;;;;;51.28;20.15;;;-5.70;99.90;;;;;;4982053;28;86456;-78
2024/01/11 06:36:55;;;;;;;53.58;21.02;;;-5.60;99.90;;;;;;4983210;28;86182;-76
2024/01/11 06:39:22;;;;;;;56.38;21.30;;;-5.70;99.90;;;;;;4983501;28;85895;-76
2024/01/11 06:41:48;;;;;;;58.47;21.05;;;-5.70;99.90;;;;;;4978710;28;87213;-77
2024/01/11 06:44:14;;;;;;;58.92;22.05;;;-5.70;99.90;;;;;;4975615;28;88741;-77
2024/01/11 06:46:41;;;;;;;62.65;22.88;;;-5.70;99.90;;;;;;4981677;28;85795;-77
2024/01/11 06:49:10;;;;;;;58.38;23.45;;;-5.70;99.90;;;;;;4982993;28;86249;-76
2024/01/11 06:51:35;;;;;;;51.63;21.13;;;-5.70;99.90;;;;;;4980162;28;88878;-76
2024/01/11 06:54:01;;;;;;;63.10;22.00;;;-5.70;99.90;;;;;;4981083;28;86461;-78
2024/01/11 06:56:27;;;;;;;65.60;22.92;;;-5.70;99.90;;;;;;4977535;28;86307;-78
2024/01/11 06:58:54;;;;;;;57.72;22.45;;;-5.70;99.90;;;;;;4987556;28;86134;-77
2024/01/11 07:01:21;;;;;;;59.70;22.55;;;-5.70;99.90;;;;;;4981789;28;87884;-77
2024/01/11 07:03:46;;;;;;;62.20;21.73;;;-5.70;99.90;;;;;;4982213;28;86631;-77
2024/01/11 07:06:12;;;;;;;59.78;22.10;;;-5.70;99.90;;;;;;4982000;28;86118;-77
2024/01/11 07:08:38;;;;;;;57.45;22.45;;;-5.70;99.90;;;;;;4979750;28;85824;-78
2024/01/11 07:11:04;;;;;;;55.10;21.33;;;-5.70;99.90;;;;;;4978807;28;87448;-77
2024/01/11 07:13:31;;;;;;;56.80;22.52;;;-5.70;99.90;;;;;;4981150;28;86938;-77
2024/01/11 07:15:57;;;;;;;52.05;21.70;;;-5.70;99.90;;;;;;4980605;28;86595;-76
2024/01/11 07:18:24;;;;;;;55.08;21.75;;;-5.70;99.90;;;;;;4982481;28;85839;-76
2024/01/11 07:20:51;;;;;;;69.47;23.10;;;-5.80;99.90;;;;;;4977426;28;87053;-77
2024/01/11 07:23:16;;;;;;;67.10;22.75;;;-5.80;99.90;;;;;;4974413;28;86816;-77
2024/01/11 07:25:43;;;;;;;56.20;22.33;;;-5.80;99.90;;;;;;4979600;28;86510;-78
2024/01/11 07:28:08;;;;;;;57.90;22.13;;;-5.80;99.90;;;;;;4979075;28;86857;-77
2024/01/11 07:30:34;;;;;;;52.35;21.35;;;-5.80;99.90;;;;;;4977433;28;87238;-77
2024/01/11 07:33:00;;;;;;;64.35;21.48;;;-5.80;99.90;;;;;;4981741;28;86911;-75
2024/01/11 07:35:26;;;;;;;70.03;23.60;;;-5.80;99.90;;;;;;4972708;28;86885;-77
2024/01/11 07:37:52;;;;;;;72.57;23.38;;;-5.80;99.90;;;;;;4977310;28;86532;-77
2024/01/11 07:40:17;;;;;;;54.80;21.58;;;-5.80;99.90;;;;;;4979947;28;86255;-77
2024/01/11 07:42:45;;;;;;;57.30;21.42;;;-5.90;99.90;;;;;;4971051;28;86997;-78
2024/01/11 07:45:12;;;;;;;69.88;23.40;;;-5.90;99.90;;;;;;4983173;28;86178;-79
2024/01/11 07:47:38;;;;;;;64.82;23.50;;;-5.90;99.90;;;;;;4992909;28;86590;-79
2024/01/11 07:50:12;;;;;;;56.58;22.75;;;-5.90;99.90;;;;;;4996670;28;86172;-77
2024/01/11 07:52:38;;;;;;;61.58;23.33;;;-5.80;99.90;;;;;;4995648;28;87332;-78
2024/01/11 07:55:07;;;;;;;56.42;23.77;;;-5.90;99.90;;;;;;4994351;28;86458;-77
2024/01/11 07:57:37;;;;;;;53.83;22.73;;;-5.80;99.90;;;;;;4995750;28;85803;-78
2024/01/11 08:00:07;;;;;;;53.63;21.70;;;-5.80;99.90;;;;;;4996602;28;87313;-78
2024/01/11 08:02:34;;;;;;;63.63;23.75;;;-5.80;99.90;;;;;;5000217;28;86860;-77
2024/01/11 08:05:01;;;;;;;61.67;23.67;;;-5.80;99.90;;;;;;4998817;28;85937;-78
2024/01/11 08:07:27;;;;;;;57.30;22.52;;;-5.80;99.90;;;;;;4996287;28;86589;-77
2024/01/11 08:09:54;;;;;;;65.65;22.98;;;-5.80;99.90;;;;;;4991128;28;86697;-78
2024/01/11 08:12:20;;;;;;;58.35;21.55;;;-5.80;99.90;;;;;;4989582;28;87583;-77
2024/01/11 08:14:46;;;;;;;57.75;23.85;;;-5.80;99.90;;;;;;4981469;28;86090;-77
2024/01/11 08:21:28;;;;;;;50.38;20.02;;;-5.70;99.90;;;;;;5087978;27;86301;-82
2024/01/11 08:23:54;;;;;;;74.75;25.17;;;-5.70;99.90;;;;;;4990588;28;86507;-75
2024/01/11 08:26:21;;;;;;;68.75;26.63;;;-5.60;99.90;;;;;;4990303;28;85949;-76
2024/01/11 08:28:47;;;;;;;67.78;25.08;;;-5.50;99.90;;;;;;4989964;28;87499;-78
2024/01/11 08:31:14;;;;;;;65.65;26.20;;;-5.50;99.90;;;;;;5004679;27;87566;-78
2024/01/11 08:33:39;;;;;;;64.80;24.63;;;-5.40;99.90;;;;;;4987288;28;86192;-77
2024/01/11 08:36:06;;;;;;;67.57;26.55;;;-5.30;99.90;;;;;;4989752;28;86936;-76
2024/01/11 08:38:32;;;;;;;69.93;25.98;;;-5.30;99.90;;;;;;4987210;28;86118;-76
2024/01/11 08:40:58;;;;;;;71.22;26.38;;;-5.30;99.90;;;;;;4987723;27;87975;-76
2024/01/11 08:43:25;;;;;;;67.35;26.35;;;-5.20;99.90;;;;;;4991065;28;86312;-80
2024/01/11 08:45:52;;;;;;;66.22;26.33;;;-5.20;99.90;;;;;;4989584;28;86250;-76
2024/01/11 08:48:18;;;;;;;70.82;28.73;;;-5.20;99.90;;;;;;4987621;28;88290;-82
2024/01/11 08:50:46;;;;;;;69.97;26.00;;;-5.10;99.90;;;;;;4988879;28;87758;-78
2024/01/11 08:53:12;;;;;;;81.72;29.20;;;-5.10;99.90;;;;;;4991678;28;85968;-76
2024/01/11 08:55:38;;;;;;;61.75;26.27;;;-5.00;99.90;;;;;;4988610;27;86210;-78
2024/01/11 08:58:04;;;;;;;64.18;25.23;;;-5.00;99.90;;;;;;4988460;28;86356;-77
2024/01/11 09:00:29;;;;;;;62.72;26.95;;;-4.90;99.90;;;;;;4992184;28;85848;-76
2024/01/11 09:03:29;;;;;;;66.07;26.80;;;-4.80;99.90;;;;;;4989141;28;87352;-78
2024/01/11 09:05:58;;;;;;;72.90;25.35;;;-4.80;99.90;;;;;;4984449;28;88638;-77
2024/01/11 09:08:23;;;;;;;67.32;26.38;;;-4.70;99.90;;;;;;4989837;28;87313;-78
2024/01/11 09:10:49;;;;;;;61.80;26.83;;;-4.60;99.90;;;;;;4996392;27;86238;-76
2024/01/11 09:13:18;;;;;;;70.63;28.63;;;-4.50;99.90;;;;;;4988879;27;86301;-76
2024/01/11 09:15:43;;;;;;;72.72;26.52;;;-4.50;99.90;;;;;;4993245;28;86712;-77
2024/01/11 09:18:09;;;;;;;71.28;27.88;;;-4.40;99.90;;;;;;4996759;28;87422;-80
2024/01/11 09:20:36;;;;;;;65.35;26.60;;;-4.30;99.90;;;;;;4985282;28;87293;-77
2024/01/11 09:23:03;;;;;;;66.93;26.95;;;-4.30;99.90;;;;;;4988904;27;86147;-78
2024/01/11 09:25:32;;;;;;;71.03;28.38;;;-4.20;99.90;;;;;;5002851;28;86633;-76
2024/01/11 09:27:58;;;;;;;69.78;26.90;;;-4.20;99.90;;;;;;4988436;28;87386;-78
2024/01/11 09:30:24;;;;;;;69.05;28.00;;;-4.10;99.90;;;;;;4984231;28;87415;-78
2024/01/11 09:32:50;;;;;;;75.50;27.50;;;-4.00;99.90;;;;;;4972920;27;86210;-76
2024/01/11 09:35:16;;;;;;;69.80;28.52;;;-3.90;99.90;;;;;;4978638;28;85971;-77
2024/01/11 09:37:46;;;;;;;67.57;29.05;;;-3.80;99.90;;;;;;4975942;28;87849;-76
2024/01/11 09:40:12;;;;;;;68.45;27.80;;;-3.80;99.90;;;;;;4975933;28;86503;-76
2024/01/11 09:42:38;;;;;;;66.32;28.15;;;-3.70;99.90;;;;;;4967509;27;85807;-77
2024/01/11 09:45:12;;;;;;;72.65;28.45;;;-3.70;99.90;;;;;;4974122;28;86841;-76
2024/01/11 09:47:39;;;;;;;67.22;27.50;;;-3.60;99.90;;;;;;5008392;28;89914;-76
2024/01/11 09:50:07;;;;;;;70.35;30.00;;;-3.50;99.90;;;;;;4975095;28;86684;-76
2024/01/11 09:52:32;;;;;;;74.88;29.40;;;-3.50;99.90;;;;;;4975567;28;86278;-76
2024/01/11 09:55:02;;;;;;;71.85;31.30;;;-3.40;99.90;;;;;;4979413;28;86853;-76
2024/01/11 09:57:34;;;;;;;88.32;31.77;;;-3.30;99.90;;;;;;4967315;27;88102;-75
2024/01/11 10:03:26;;;;;;;78.47;31.48;;;-3.10;99.90;;;;;;4975161;28;85973;-76
2024/01/11 10:05:56;;;;;;;77.63;32.20;;;-3.00;99.90;;;;;;4974294;28;87387;-76
2024/01/11 10:08:23;;;;;;;73.30;31.20;;;-2.80;99.90;;;;;;4970446;28;88261;-75
2024/01/11 10:10:49;;;;;;;81.13;31.52;;;-2.70;99.90;;;;;;4978914;28;86696;-77
2024/01/11 10:13:16;;;;;;;70.63;29.48;;;-2.60;99.90;;;;;;4974374;28;86756;-75
2024/01/11 10:15:43;;;;;;;81.00;31.55;;;-2.50;99.90;;;;;;4977243;27;87311;-78
2024/01/11 10:18:09;;;;;;;71.13;30.02;;;-2.40;99.90;;;;;;5010890;28;87865;-78
2024/01/11 10:20:35;;;;;;;67.45;30.20;;;-2.30;99.90;;;;;;4973063;28;87131;-77
2024/01/11 10:23:02;;;;;;;71.40;30.70;;;-2.20;99.90;;;;;;4977106;28;86716;-77
2024/01/11 10:25:28;;;;;;;70.97;29.95;;;-2.00;99.90;;;;;;4976625;27;87048;-78
2024/01/11 10:28:50;;;;;;;77.43;29.00;;;-1.90;99.90;;;;;;4974917;28;88408;-76
2024/01/11 10:31:16;;;;;;;66.72;30.63;;;-1.80;99.90;;;;;;4977646;28;86473;-76
2024/01/11 10:33:42;;;;;;;66.53;28.73;;;-1.70;99.90;;;;;;4971929;28;86467;-76
2024/01/11 10:36:09;;;;;;;69.50;29.08;;;-1.60;99.90;;;;;;4980303;28;86701;-76
2024/01/11 10:38:37;;;;;;;71.38;30.30;;;-1.50;99.90;;;;;;4982069;27;87580;-77
2024/01/11 10:41:05;;;;;;;67.78;29.40;;;-1.30;99.90;;;;;;4977436;28;86920;-76
2024/01/11 10:43:34;;;;;;;67.65;28.95;;;-1.30;99.90;;;;;;4973555;28;86274;-76
2024/01/11 10:46:03;;;;;;;70.50;28.48;;;-1.10;99.90;;;;;;4974320;27;85800;-75
2024/01/11 10:48:31;;;;;;;62.72;27.92;;;-1.00;99.90;;;;;;4973624;28;87457;-75
2024/01/11 10:51:12;;;;;;;71.30;28.95;;;-0.90;99.90;;;;;;4973415;28;89250;-79
2024/01/11 10:53:46;;;;;;;63.55;27.85;;;-0.70;99.90;;;;;;4982319;28;86501;-76
2024/01/11 10:56:14;;;;;;;68.78;27.88;;;-0.60;99.90;;;;;;4975612;28;86296;-76
2024/01/11 10:58:44;;;;;;;65.97;28.77;;;-0.50;99.90;;;;;;5010273;27;87664;-76
2024/01/11 11:01:12;;;;;;;68.68;27.00;;;-0.50;99.90;;;;;;4980188;27;86297;-77
2024/01/11 11:03:39;;;;;;;66.68;28.83;;;-0.40;99.90;;;;;;4975788;27;86231;-77
2024/01/11 11:06:09;;;;;;;64.35;27.73;;;-0.30;99.90;;;;;;4978475;28;85951;-76
2024/01/11 11:08:37;;;;;;;65.40;30.02;;;-0.20;99.90;;;;;;4976811;27;88278;-76
2024/01/11 11:11:10;;;;;;;68.13;29.80;;;-0.10;99.90;;;;;;5008538;28;87310;-82
2024/01/11 11:13:37;;;;;;;70.03;28.90;;;0.00;99.90;;;;;;4975436;28;86290;-79
2024/01/11 11:16:03;;;;;;;62.55;28.00;;;0.10;99.90;;;;;;4980254;27;86129;-78
2024/01/11 11:18:40;;;;;;;67.75;29.13;;;0.20;99.90;;;;;;4985170;28;86885;-93
2024/01/11 11:21:12;;;;;;;67.28;29.20;;;0.30;99.90;;;;;;4978575;28;88305;-76
2024/01/11 11:23:38;;;;;;;64.88;30.25;;;0.40;99.90;;;;;;4977969;28;86773;-78
2024/01/11 11:26:09;;;;;;;68.88;28.42;;;0.40;99.90;;;;;;4979518;28;85974;-76
2024/01/11 11:28:36;;;;;;;68.18;29.67;;;0.50;99.90;;;;;;4976354;28;86820;-76
2024/01/11 11:31:02;;;;;;;62.80;29.02;;;0.60;99.90;;;;;;4976561;28;87494;-78
2024/01/11 11:33:31;;;;;;;67.82;29.80;;;0.70;99.90;;;;;;4973159;27;86311;-79
2024/01/11 11:35:58;;;;;;;60.60;28.20;;;0.80;99.90;;;;;;4974885;28;86378;-76
2024/01/11 11:38:30;;;;;;;66.28;30.75;;;0.80;99.90;;;;;;4974299;28;88867;-77
2024/01/11 11:40:58;;;;;;;70.20;29.90;;;0.90;99.90;;;;;;5009399;28;86401;-77
2024/01/11 11:43:27;;;;;;;60.97;27.75;;;1.00;99.90;;;;;;4974620;28;86285;-80
2024/01/11 11:45:53;;;;;;;67.45;30.33;;;1.20;99.90;;;;;;4977214;28;85973;-77
2024/01/11 11:48:32;;;;;;;67.43;30.40;;;1.30;99.90;;;;;;4984141;28;87479;-79
2024/01/11 11:58:54;;;;;;;66.63;28.27;;;1.90;99.90;;;;;;4991498;22;86011;-78
2024/01/11 12:01:24;;;;;;;75.20;31.95;;;2.00;99.90;;;;;;4969956;28;87080;-79
2024/01/11 12:03:49;;;;;;;73.32;33.58;;;2.20;99.90;;;;;;4963976;28;86515;-79
2024/01/11 12:06:17;;;;;;;61.05;28.98;;;2.20;99.90;;;;;;4966304;28;85719;-80
2024/01/11 12:08:44;;;;;;;60.92;28.38;;;2.40;99.90;;;;;;4960670;28;87592;-80
2024/01/11 12:11:33;;;;;;;61.55;28.45;;;2.50;99.90;;;;;;5012938;22;86871;-79
2024/01/11 12:13:59;;;;;;;60.08;26.67;;;2.70;99.90;;;;;;5018510;22;85651;-81
2024/01/11 12:19:00;;;;;;;58.03;25.33;;;3.00;99.30;;;;;;4232588;22;86497;-80
2024/01/11 12:24:01;;;;;;;51.35;23.95;;;3.30;97.60;;;;;;5868314;22;87105;-79
2024/01/11 12:26:29;;;;;;;49.70;23.10;;;3.40;98.10;;;;;;5006792;27;86118;-80
2024/01/11 12:31:31;;;;;;;50.47;23.00;;;3.80;97.40;;;;;;5115779;22;86337;-79
2024/01/11 12:33:57;;;;;;;44.53;21.58;;;3.90;95.80;;;;;;5198040;22;86166;-81
2024/01/11 12:36:23;;;;;;;48.15;23.73;;;3.90;95.60;;;;;;5037875;28;85681;-83
2024/01/11 12:38:49;;;;;;;54.40;23.42;;;4.00;95.00;;;;;;5038315;28;85352;-80
2024/01/11 12:41:19;;;;;;;43.03;21.55;;;4.10;94.60;;;;;;5029787;28;85710;-80
2024/01/11 12:43:45;;;;;;;45.42;21.60;;;4.10;92.20;;;;;;5777058;22;87516;-80
2024/01/11 12:46:14;;;;;;;49.40;22.10;;;4.10;94.00;;;;;;5144950;22;86737;-82
2024/01/11 12:54:07;;;;;;;;;;;;;;;;;;;;;
2024/01/11 12:56:33;;;;;;;46.33;21.33;;;4.60;92.70;;;;;;5007652;28;111542;-83
2024/01/11 12:59:12;;;;;;;48.85;21.08;;;4.70;92.70;;;;;;5010470;28;85943;-81